sensor_id;sensor_type;location;lat;lon;timestamp;P1;durP1;ratioP1;P2;durP2;ratioP2
67090;SDS011;54007;55.818;49.058;2022-09-12T11:39:13;5.50;;;1.70;;
67090;SDS011;54007;55.818;49.058;2022-09-12T11:41:46;5.87;;;1.80;;
67090;SDS011;54007;55.818;49.058;2022-09-12T11:44:10;4.35;;;1.60;;
67090;SDS011;54007;55.818;49.058;2022-09-12T11:46:34;5.40;;;1.60;;
67090;SDS011;54007;55.818;49.058;2022-09-12T11:51:54;5.08;;;1.90;;
67090;SDS011;54007;55.818;49.058;2022-09-12T11:59:48;5.03;;;1.45;;
67090;SDS011;54007;55.818;49.058;2022-09-12T12:02:26;4.92;;;1.80;;
67090;SDS011;54007;55.818;49.058;2022-09-12T12:08:11;3.98;;;1.70;;
67090;SDS011;54007;55.818;49.058;2022-09-12T12:09:57;6.45;;;1.80;;
67090;SDS011;54007;55.818;49.058;2022-09-12T12:12:24;4.08;;;1.62;;
67090;SDS011;54007;55.818;49.058;2022-09-12T12:14:49;7.25;;;2.37;;
67090;SDS011;54007;55.818;49.058;2022-09-12T12:17:16;4.87;;;2.20;;
67090;SDS011;54007;55.818;49.058;2022-09-12T12:19:41;9.10;;;2.42;;
67090;SDS011;54007;55.818;49.058;2022-09-12T12:22:08;8.25;;;2.40;;
67090;SDS011;54007;55.818;49.058;2022-09-12T12:24:32;7.37;;;2.50;;
67090;SDS011;54007;55.818;49.058;2022-09-12T12:27:02;5.85;;;2.08;;
67090;SDS011;54007;55.818;49.058;2022-09-12T12:34:31;6.87;;;2.10;;
67090;SDS011;54007;55.818;49.058;2022-09-12T12:36:57;4.72;;;1.98;;
67090;SDS011;54007;55.818;49.058;2022-09-12T12:42:00;7.83;;;2.20;;
67090;SDS011;54007;55.818;49.058;2022-09-12T12:52:47;6.30;;;1.98;;
67090;SDS011;54007;55.818;49.058;2022-09-12T12:55:16;5.60;;;1.70;;
67090;SDS011;54007;55.818;49.058;2022-09-12T12:57:49;11.35;;;2.50;;
67090;SDS011;54007;55.818;49.058;2022-09-12T13:05:22;6.97;;;2.10;;
67090;SDS011;54007;55.818;49.058;2022-09-12T13:07:51;8.83;;;2.60;;
67090;SDS011;54007;55.818;49.058;2022-09-12T13:10:25;19.50;;;2.70;;
67090;SDS011;54007;55.818;49.058;2022-09-12T13:12:48;7.05;;;2.27;;
67090;SDS011;54007;55.818;49.058;2022-09-12T13:15:56;14.43;;;2.47;;
67090;SDS011;54007;55.818;49.058;2022-09-12T13:17:42;5.92;;;2.65;;
67090;SDS011;54007;55.818;49.058;2022-09-12T13:22:47;10.70;;;2.70;;
67090;SDS011;54007;55.818;49.058;2022-09-12T13:28:13;17.40;;;4.12;;
67090;SDS011;54007;55.818;49.058;2022-09-12T13:30:35;21.27;;;3.70;;
67090;SDS011;54007;55.818;49.058;2022-09-12T13:38:22;14.68;;;4.08;;
67090;SDS011;54007;55.818;49.058;2022-09-12T13:40:52;17.60;;;4.83;;
67090;SDS011;54007;55.818;49.058;2022-09-12T13:43:14;21.97;;;4.90;;
67090;SDS011;54007;55.818;49.058;2022-09-12T13:45:39;24.67;;;5.00;;
67090;SDS011;54007;55.818;49.058;2022-09-12T13:48:05;19.77;;;7.08;;
67090;SDS011;54007;55.818;49.058;2022-09-12T13:50:32;18.30;;;6.20;;
67090;SDS011;54007;55.818;49.058;2022-09-12T13:52:58;18.23;;;7.47;;
67090;SDS011;54007;55.818;49.058;2022-09-12T13:55:25;24.35;;;7.08;;
67090;SDS011;54007;55.818;49.058;2022-09-12T13:57:55;21.12;;;6.45;;
67090;SDS011;54007;55.818;49.058;2022-09-12T14:00:16;26.02;;;6.58;;
67090;SDS011;54007;55.818;49.058;2022-09-12T14:02:40;17.57;;;8.23;;
67090;SDS011;54007;55.818;49.058;2022-09-12T14:05:10;20.92;;;8.73;;
67090;SDS011;54007;55.818;49.058;2022-09-12T14:10:49;25.68;;;7.90;;
67090;SDS011;54007;55.818;49.058;2022-09-12T14:12:48;28.00;;;8.30;;
67090;SDS011;54007;55.818;49.058;2022-09-12T14:15:18;29.63;;;9.48;;
67090;SDS011;54007;55.818;49.058;2022-09-12T14:17:40;29.35;;;9.58;;
67090;SDS011;54007;55.818;49.058;2022-09-12T14:20:07;26.47;;;10.17;;
67090;SDS011;54007;55.818;49.058;2022-09-12T14:22:31;29.50;;;9.95;;
67090;SDS011;54007;55.818;49.058;2022-09-12T14:24:57;24.77;;;10.13;;
67090;SDS011;54007;55.818;49.058;2022-09-12T14:27:24;28.70;;;12.40;;
67090;SDS011;54007;55.818;49.058;2022-09-12T14:29:49;28.02;;;12.90;;
67090;SDS011;54007;55.818;49.058;2022-09-12T14:32:19;33.13;;;13.70;;
67090;SDS011;54007;55.818;49.058;2022-09-12T14:34:41;37.60;;;22.98;;
67090;SDS011;54007;55.818;49.058;2022-09-12T14:37:06;37.33;;;23.22;;
67090;SDS011;54007;55.818;49.058;2022-09-12T14:39:36;42.90;;;26.97;;
67090;SDS011;54007;55.818;49.058;2022-09-12T14:42:05;47.48;;;30.02;;
67090;SDS011;54007;55.818;49.058;2022-09-12T14:44:27;51.18;;;36.20;;
67090;SDS011;54007;55.818;49.058;2022-09-12T14:46:53;59.75;;;42.00;;
67090;SDS011;54007;55.818;49.058;2022-09-12T14:49:20;65.22;;;41.65;;
67090;SDS011;54007;55.818;49.058;2022-09-12T14:51:52;61.68;;;38.75;;
67090;SDS011;54007;55.818;49.058;2022-09-12T14:56:53;40.03;;;25.33;;
67090;SDS011;54007;55.818;49.058;2022-09-12T15:02:41;25.23;;;15.25;;
67090;SDS011;54007;55.818;49.058;2022-09-12T15:04:40;29.85;;;17.25;;
67090;SDS011;54007;55.818;49.058;2022-09-12T15:07:12;22.13;;;10.23;;
67090;SDS011;54007;55.818;49.058;2022-09-12T15:09:29;19.73;;;8.77;;
67090;SDS011;54007;55.818;49.058;2022-09-12T15:11:54;21.02;;;9.78;;
67090;SDS011;54007;55.818;49.058;2022-09-12T15:14:20;27.15;;;10.35;;
67090;SDS011;54007;55.818;49.058;2022-09-12T15:16:46;16.43;;;8.90;;
67090;SDS011;54007;55.818;49.058;2022-09-12T15:19:12;23.87;;;9.88;;
67090;SDS011;54007;55.818;49.058;2022-09-12T15:21:38;23.77;;;9.60;;
67090;SDS011;54007;55.818;49.058;2022-09-12T15:24:04;21.27;;;10.57;;
67090;SDS011;54007;55.818;49.058;2022-09-12T15:26:29;27.85;;;10.25;;
67090;SDS011;54007;55.818;49.058;2022-09-12T15:28:55;20.93;;;11.23;;
67090;SDS011;54007;55.818;49.058;2022-09-12T15:31:23;35.92;;;14.55;;
67090;SDS011;54007;55.818;49.058;2022-09-12T15:33:47;61.73;;;20.75;;
67090;SDS011;54007;55.818;49.058;2022-09-12T15:36:14;37.07;;;18.67;;
67090;SDS011;54007;55.818;49.058;2022-09-12T15:38:42;39.53;;;20.10;;
67090;SDS011;54007;55.818;49.058;2022-09-12T15:41:09;37.15;;;18.45;;
67090;SDS011;54007;55.818;49.058;2022-09-12T15:43:34;36.03;;;17.20;;
67090;SDS011;54007;55.818;49.058;2022-09-12T15:46:00;36.73;;;16.70;;
67090;SDS011;54007;55.818;49.058;2022-09-12T15:48:26;34.48;;;15.98;;
67090;SDS011;54007;55.818;49.058;2022-09-12T15:50:52;27.10;;;14.23;;
67090;SDS011;54007;55.818;49.058;2022-09-12T15:53:18;31.48;;;14.63;;
67090;SDS011;54007;55.818;49.058;2022-09-12T15:55:44;28.38;;;14.38;;
67090;SDS011;54007;55.818;49.058;2022-09-12T15:58:10;30.43;;;13.32;;
67090;SDS011;54007;55.818;49.058;2022-09-12T16:00:35;32.58;;;14.25;;
67090;SDS011;54007;55.818;49.058;2022-09-12T16:03:01;30.80;;;13.27;;
67090;SDS011;54007;55.818;49.058;2022-09-12T16:05:27;46.40;;;22.10;;
67090;SDS011;54007;55.818;49.058;2022-09-12T16:07:53;36.48;;;13.80;;
67090;SDS011;54007;55.818;49.058;2022-09-12T16:10:25;32.43;;;13.57;;
67090;SDS011;54007;55.818;49.058;2022-09-12T16:12:48;37.33;;;14.07;;
67090;SDS011;54007;55.818;49.058;2022-09-12T16:17:49;34.53;;;14.17;;
67090;SDS011;54007;55.818;49.058;2022-09-12T16:20:15;32.55;;;12.68;;
67090;SDS011;54007;55.818;49.058;2022-09-12T16:22:40;34.83;;;13.65;;
67090;SDS011;54007;55.818;49.058;2022-09-12T16:25:06;30.73;;;13.03;;
67090;SDS011;54007;55.818;49.058;2022-09-12T16:27:32;42.85;;;14.85;;
67090;SDS011;54007;55.818;49.058;2022-09-12T16:29:58;44.63;;;14.85;;
67090;SDS011;54007;55.818;49.058;2022-09-12T16:32:24;39.63;;;14.20;;
67090;SDS011;54007;55.818;49.058;2022-09-12T16:34:50;39.55;;;14.53;;
67090;SDS011;54007;55.818;49.058;2022-09-12T16:37:16;39.85;;;13.83;;
67090;SDS011;54007;55.818;49.058;2022-09-12T16:39:42;50.17;;;15.10;;
67090;SDS011;54007;55.818;49.058;2022-09-12T16:42:08;40.73;;;14.47;;
67090;SDS011;54007;55.818;49.058;2022-09-12T16:44:34;61.88;;;24.37;;
67090;SDS011;54007;55.818;49.058;2022-09-12T16:47:00;53.70;;;19.15;;
67090;SDS011;54007;55.818;49.058;2022-09-12T16:49:26;45.33;;;15.70;;
67090;SDS011;54007;55.818;49.058;2022-09-12T16:51:52;37.90;;;15.15;;
67090;SDS011;54007;55.818;49.058;2022-09-12T16:54:18;40.50;;;14.47;;
67090;SDS011;54007;55.818;49.058;2022-09-12T16:56:44;40.33;;;15.53;;
67090;SDS011;54007;55.818;49.058;2022-09-12T16:59:10;36.73;;;14.93;;
67090;SDS011;54007;55.818;49.058;2022-09-12T17:01:36;39.67;;;16.05;;
67090;SDS011;54007;55.818;49.058;2022-09-12T17:04:01;34.73;;;14.80;;
67090;SDS011;54007;55.818;49.058;2022-09-12T17:06:27;42.90;;;15.75;;
67090;SDS011;54007;55.818;49.058;2022-09-12T17:08:54;45.70;;;16.10;;
